Time;durP1;ratioP1;P1;durP2;ratioP2;P2;SDS_P1;SDS_P2;PMS_P1;PMS_P2;Temp;Humidity;BMP_temperature;BMP_pressure;BME280_temperature;BME280_humidity;BME280_pressure;Samples;Min_cycle;Max_cycle;Signal;HPM_P1;HPM_P2
2023/08/30 00:02:20;;;;;;;31.03;29.87;;;22.90;91.80;;;;;;4953892;28;20456;-47
2023/08/30 00:04:47;;;;;;;30.93;29.73;;;22.90;91.80;;;;;;4951784;29;20552;-47
2023/08/30 00:07:13;;;;;;;30.13;29.03;;;22.90;91.80;;;;;;4955638;28;20496;-47
2023/08/30 00:09:40;;;;;;;30.80;29.60;;;22.90;91.80;;;;;;4952213;28;20976;-49
2023/08/30 00:12:09;;;;;;;30.83;29.63;;;22.90;91.90;;;;;;4955728;28;20488;-47
2023/08/30 00:14:35;;;;;;;29.70;28.67;;;22.90;91.90;;;;;;4952376;28;20489;-46
2023/08/30 00:17:03;;;;;;;31.27;30.00;;;22.90;91.90;;;;;;4951559;28;20493;-47
2023/08/30 00:19:30;;;;;;;29.60;28.47;;;22.90;91.90;;;;;;4951900;28;20940;-47
2023/08/30 00:21:57;;;;;;;30.40;29.20;;;22.90;92.00;;;;;;4954415;28;20903;-46
2023/08/30 00:24:24;;;;;;;31.63;30.33;;;22.90;92.00;;;;;;4951430;28;20786;-47
2023/08/30 00:26:51;;;;;;;30.13;29.03;;;22.90;92.00;;;;;;4951885;28;20480;-47
2023/08/30 00:29:19;;;;;;;30.57;29.37;;;22.90;92.10;;;;;;4952141;28;20495;-47
2023/08/30 00:31:46;;;;;;;29.10;28.00;;;22.90;92.10;;;;;;4952510;28;20480;-46
2023/08/30 00:34:13;;;;;;;31.57;30.30;;;22.90;92.10;;;;;;4949672;28;20481;-47
2023/08/30 00:36:40;;;;;;;31.47;30.27;;;22.90;92.20;;;;;;4953452;28;20465;-47
2023/08/30 00:39:08;;;;;;;30.17;29.07;;;22.90;92.20;;;;;;4952652;28;20500;-47
2023/08/30 00:41:35;;;;;;;32.50;30.90;;;22.90;92.20;;;;;;4961447;28;20465;-47
2023/08/30 00:44:02;;;;;;;32.60;31.30;;;22.90;92.20;;;;;;4952716;28;20840;-47
2023/08/30 00:46:31;;;;;;;33.47;32.17;;;22.90;92.20;;;;;;4952919;28;20999;-47
2023/08/30 00:48:59;;;;;;;32.60;31.40;;;22.90;92.20;;;;;;4951679;28;20453;-47
2023/08/30 00:51:26;;;;;;;32.90;31.70;;;22.90;92.30;;;;;;4951204;28;20472;-47
2023/08/30 00:53:55;;;;;;;34.00;32.70;;;22.90;92.30;;;;;;4953832;28;20991;-46
2023/08/30 00:56:22;;;;;;;33.80;32.60;;;22.90;92.30;;;;;;4954431;28;20523;-48
2023/08/30 00:58:50;;;;;;;33.93;32.67;;;22.90;92.30;;;;;;4951411;28;20899;-47
2023/08/30 01:01:18;;;;;;;33.67;32.37;;;22.90;92.30;;;;;;4951062;28;20865;-46
2023/08/30 01:03:46;;;;;;;32.83;31.60;;;22.90;92.30;;;;;;4959760;28;20445;-47
2023/08/30 01:06:14;;;;;;;34.77;33.47;;;22.90;92.40;;;;;;4952977;28;20514;-47
2023/08/30 01:08:42;;;;;;;32.93;31.73;;;22.80;92.30;;;;;;4951244;28;20453;-47
2023/08/30 01:11:15;;;;;;;34.17;32.77;;;22.80;92.30;;;;;;4951103;28;20862;-47
2023/08/30 01:13:47;;;;;;;33.87;32.57;;;22.80;92.40;;;;;;4952503;28;20456;-47
2023/08/30 01:16:16;;;;;;;31.83;30.63;;;22.80;92.40;;;;;;4950894;28;20503;-48
2023/08/30 01:18:46;;;;;;;32.23;31.03;;;22.80;92.40;;;;;;4955439;28;20468;-49
2023/08/30 01:21:23;;;;;;;33.47;32.17;;;22.80;92.40;;;;;;4951036;28;20876;-48
2023/08/30 01:23:57;;;;;;;31.67;30.47;;;22.80;92.40;;;;;;4951493;28;20483;-47
2023/08/30 01:26:37;;;;;;;33.13;31.93;;;22.80;92.40;;;;;;4951999;28;20532;-46
2023/08/30 01:29:06;;;;;;;32.03;30.70;;;22.80;92.60;;;;;;4954186;28;20495;-47
2023/08/30 01:31:35;;;;;;;31.80;30.60;;;22.80;92.40;;;;;;4951085;28;20495;-47
2023/08/30 01:34:03;;;;;;;31.10;29.80;;;22.80;92.40;;;;;;4958230;28;20457;-48
2023/08/30 01:36:31;;;;;;;33.70;32.30;;;22.80;92.50;;;;;;4963516;28;20550;-47
2023/08/30 01:38:59;;;;;;;31.67;30.47;;;22.80;92.40;;;;;;4954875;28;20878;-48
2023/08/30 01:41:28;;;;;;;32.60;31.23;;;22.80;92.50;;;;;;4951596;28;20530;-47
2023/08/30 01:43:56;;;;;;;33.67;32.37;;;22.80;92.40;;;;;;4955383;28;20476;-47
2023/08/30 01:46:26;;;;;;;31.70;30.50;;;22.80;92.50;;;;;;4950999;28;20485;-47
2023/08/30 01:48:54;;;;;;;30.83;29.53;;;22.80;92.50;;;;;;4950788;28;20488;-46
2023/08/30 01:51:21;;;;;;;33.20;31.90;;;22.80;92.50;;;;;;4950611;28;20491;-47
2023/08/30 01:53:48;;;;;;;32.23;30.83;;;22.80;92.50;;;;;;4950530;28;20473;-47
2023/08/30 01:56:15;;;;;;;31.80;30.60;;;22.80;92.50;;;;;;4956962;28;20507;-48
2023/08/30 01:58:42;;;;;;;31.27;29.87;;;22.80;92.50;;;;;;4951357;28;20873;-47
2023/08/30 02:01:09;;;;;;;30.97;29.77;;;22.80;92.50;;;;;;4950243;28;20489;-48
2023/08/30 02:03:37;;;;;;;31.50;30.30;;;22.80;92.40;;;;;;4957054;28;20449;-47
2023/08/30 02:06:09;;;;;;;31.70;30.50;;;22.80;92.50;;;;;;4950247;28;20527;-47
2023/08/30 02:08:41;;;;;;;30.83;29.53;;;22.70;92.40;;;;;;4947148;28;20530;-48
2023/08/30 02:11:15;;;;;;;31.67;30.47;;;22.70;92.40;;;;;;4950424;28;20884;-48
2023/08/30 02:13:43;;;;;;;29.90;28.60;;;22.70;92.40;;;;;;4950569;28;20887;-47
2023/08/30 02:16:11;;;;;;;29.77;28.60;;;22.70;92.40;;;;;;4950281;28;20504;-48
2023/08/30 02:18:40;;;;;;;30.97;29.87;;;22.70;92.40;;;;;;4950373;28;20488;-48
2023/08/30 02:21:07;;;;;;;39.17;37.67;;;22.70;92.40;;;;;;4951144;28;20476;-48
2023/08/30 02:23:34;;;;;;;41.10;39.50;;;22.70;92.40;;;;;;4950481;28;20484;-47
2023/08/30 02:26:03;;;;;;;30.10;28.90;;;22.70;92.40;;;;;;4958336;28;20567;-47
2023/08/30 02:28:30;;;;;;;32.63;31.43;;;22.70;92.40;;;;;;4953348;28;20547;-48
2023/08/30 02:30:56;;;;;;;32.33;31.13;;;22.70;92.40;;;;;;4950442;28;20473;-47
2023/08/30 02:33:23;;;;;;;30.63;29.43;;;22.70;92.40;;;;;;4950174;28;20484;-47
2023/08/30 02:35:53;;;;;;;29.40;28.20;;;22.70;92.40;;;;;;4954257;28;20522;-47
2023/08/30 02:38:20;;;;;;;31.43;30.20;;;22.70;92.40;;;;;;4955672;28;20452;-48
2023/08/30 02:40:47;;;;;;;30.20;29.00;;;22.70;92.40;;;;;;4956348;28;20753;-47
2023/08/30 02:43:14;;;;;;;29.67;28.57;;;22.70;92.40;;;;;;4955720;28;20493;-47
2023/08/30 02:45:41;;;;;;;29.83;28.67;;;22.70;92.40;;;;;;4953218;28;20542;-47
2023/08/30 02:48:08;;;;;;;29.63;28.13;;;22.70;92.40;;;;;;4954287;28;20492;-49
2023/08/30 02:50:35;;;;;;;30.67;29.47;;;22.70;92.40;;;;;;4960723;28;20507;-47
2023/08/30 02:53:03;;;;;;;31.07;29.77;;;22.60;92.30;;;;;;4958745;28;21035;-48
2023/08/30 02:55:32;;;;;;;31.20;30.03;;;22.70;92.30;;;;;;4951718;28;20927;-47
2023/08/30 02:57:58;;;;;;;32.50;31.20;;;22.60;92.30;;;;;;4953493;28;20484;-47
2023/08/30 03:00:25;;;;;;;32.20;31.00;;;22.60;92.30;;;;;;4953142;28;20607;-47
2023/08/30 03:02:52;;;;;;;33.60;32.30;;;22.60;92.30;;;;;;4953476;28;20448;-47
2023/08/30 03:05:20;;;;;;;34.77;33.17;;;22.60;92.30;;;;;;4952535;28;20539;-48
2023/08/30 03:07:47;;;;;;;31.57;30.37;;;22.60;92.30;;;;;;4951928;28;20492;-47
2023/08/30 03:10:15;;;;;;;31.90;30.60;;;22.60;92.30;;;;;;4952858;28;20949;-47
2023/08/30 03:12:42;;;;;;;36.63;35.33;;;22.60;92.30;;;;;;4953210;28;20484;-47
2023/08/30 03:15:09;;;;;;;31.97;30.73;;;22.60;92.30;;;;;;4952651;28;20492;-48
2023/08/30 03:17:36;;;;;;;33.03;31.73;;;22.60;92.30;;;;;;4954029;28;20449;-47
2023/08/30 03:20:04;;;;;;;32.30;30.70;;;22.60;92.30;;;;;;4952815;28;20445;-47
2023/08/30 03:22:32;;;;;;;31.10;29.80;;;22.60;92.30;;;;;;4954111;28;20540;-47
2023/08/30 03:24:59;;;;;;;29.90;28.70;;;22.60;92.30;;;;;;4955219;28;20508;-47
2023/08/30 03:27:27;;;;;;;32.20;30.80;;;22.60;92.30;;;;;;4958606;28;20506;-46
2023/08/30 03:29:56;;;;;;;38.80;37.30;;;22.60;92.30;;;;;;4953273;28;20801;-48
2023/08/30 03:32:23;;;;;;;40.80;39.20;;;22.60;92.30;;;;;;4952657;28;20444;-46
2023/08/30 03:34:50;;;;;;;30.60;29.30;;;22.60;92.30;;;;;;4952343;28;20980;-48
2023/08/30 03:37:18;;;;;;;29.53;28.37;;;22.60;92.30;;;;;;4957983;28;20963;-46
2023/08/30 03:39:44;;;;;;;29.23;28.03;;;22.60;92.30;;;;;;4954795;28;20542;-47
2023/08/30 03:42:11;;;;;;;32.10;30.80;;;22.60;92.30;;;;;;4958703;28;20971;-48
2023/08/30 03:44:40;;;;;;;31.30;30.10;;;22.50;92.20;;;;;;4954063;28;20949;-47
2023/08/30 03:47:07;;;;;;;29.10;27.93;;;22.50;92.20;;;;;;4952511;28;20547;-47
2023/08/30 03:49:34;;;;;;;30.80;29.70;;;22.50;92.20;;;;;;4952496;28;20870;-47
2023/08/30 03:52:01;;;;;;;30.37;29.17;;;22.50;92.20;;;;;;4952358;28;20468;-47
2023/08/30 03:54:28;;;;;;;30.60;29.40;;;22.50;92.20;;;;;;4952051;28;20524;-47
2023/08/30 03:56:55;;;;;;;29.63;28.43;;;22.50;92.20;;;;;;4960997;28;20506;-50
2023/08/30 03:59:22;;;;;;;30.70;29.00;;;22.50;92.20;;;;;;4953031;28;20477;-47
2023/08/30 04:01:51;;;;;;;31.87;30.67;;;22.50;92.20;;;;;;4952497;28;20448;-50
2023/08/30 04:04:18;;;;;;;31.97;30.77;;;22.50;92.20;;;;;;4952179;28;20460;-47
2023/08/30 04:06:44;;;;;;;33.47;31.93;;;22.50;92.20;;;;;;4952046;28;20477;-47
2023/08/30 04:09:11;;;;;;;34.60;33.20;;;22.50;92.30;;;;;;4952013;28;20536;-47
2023/08/30 04:11:38;;;;;;;36.50;35.00;;;22.50;92.30;;;;;;4958680;28;20488;-47
2023/08/30 04:14:05;;;;;;;38.70;37.10;;;22.50;92.40;;;;;;4951952;28;20484;-46
2023/08/30 04:16:32;;;;;;;39.33;37.63;;;22.50;92.40;;;;;;4956276;28;20551;-47
2023/08/30 04:19:00;;;;;;;38.27;36.77;;;22.50;92.40;;;;;;4951888;29;20485;-47
2023/08/30 04:21:27;;;;;;;32.83;31.60;;;22.50;92.50;;;;;;4951766;28;20959;-47
2023/08/30 04:23:54;;;;;;;35.50;34.00;;;22.50;92.50;;;;;;4951725;28;20544;-47
2023/08/30 04:26:21;;;;;;;36.87;35.17;;;22.50;92.50;;;;;;4963368;28;20566;-47
2023/08/30 04:28:48;;;;;;;35.80;34.40;;;22.50;92.50;;;;;;4951931;28;20487;-46
2023/08/30 04:31:15;;;;;;;36.73;35.30;;;22.50;92.60;;;;;;4951739;28;20480;-47
2023/08/30 04:33:41;;;;;;;39.60;38.00;;;22.50;92.70;;;;;;4951592;28;20479;-46
2023/08/30 04:36:10;;;;;;;37.27;35.67;;;22.50;92.70;;;;;;4956912;28;20500;-46
2023/08/30 04:38:36;;;;;;;34.50;33.20;;;22.50;92.70;;;;;;4953014;28;20480;-47
2023/08/30 04:41:03;;;;;;;40.00;38.50;;;22.50;92.70;;;;;;4951671;28;20485;-46
2023/08/30 04:43:30;;;;;;;45.77;43.97;;;22.50;92.70;;;;;;4951852;28;20492;-52
2023/08/30 04:45:58;;;;;;;46.50;44.50;;;22.50;93.50;;;;;;4955465;28;20492;-56
2023/08/30 04:48:25;;;;;;;47.60;45.60;;;22.50;94.40;;;;;;4957684;28;20852;-49
2023/08/30 04:50:59;;;;;;;47.37;45.37;;;22.40;93.40;;;;;;4952202;28;20539;-49
2023/08/30 04:53:28;;;;;;;46.40;44.10;;;22.40;93.20;;;;;;4951488;28;20886;-49
2023/08/30 04:55:55;;;;;;;47.70;45.90;;;22.50;93.80;;;;;;4956240;28;20553;-51
2023/08/30 04:58:22;;;;;;;49.17;47.17;;;22.60;94.30;;;;;;4953702;28;20444;-54
2023/08/30 05:00:48;;;;;;;48.17;46.20;;;22.70;94.10;;;;;;4951119;28;20457;-59
2023/08/30 05:03:15;;;;;;;48.63;46.60;;;22.80;94.10;;;;;;4951001;28;20980;-51
2023/08/30 05:05:46;;;;;;;50.30;47.80;;;22.90;94.10;;;;;;4951045;28;20909;-48
2023/08/30 05:08:13;;;;;;;47.30;45.13;;;23.10;93.80;;;;;;4952403;28;20495;-48
2023/08/30 05:10:42;;;;;;;48.40;46.30;;;23.20;93.50;;;;;;4951413;28;20456;-52
2023/08/30 05:13:10;;;;;;;49.73;47.30;;;23.30;93.10;;;;;;4951261;28;20536;-47
2023/08/30 05:15:37;;;;;;;46.77;44.77;;;23.40;93.00;;;;;;4954053;28;20496;-49
2023/08/30 05:18:04;;;;;;;45.67;43.53;;;23.50;92.80;;;;;;4952231;28;20932;-49
2023/08/30 05:20:31;;;;;;;47.37;45.37;;;23.60;92.50;;;;;;4951218;28;20461;-47
2023/08/30 05:22:58;;;;;;;45.13;43.03;;;23.70;92.40;;;;;;4953994;28;20489;-48
2023/08/30 05:25:25;;;;;;;44.30;42.60;;;23.80;92.20;;;;;;4955059;28;20554;-48
2023/08/30 05:27:56;;;;;;;46.53;44.73;;;24.00;92.10;;;;;;4950969;28;20567;-49
2023/08/30 05:30:23;;;;;;;46.93;45.13;;;24.10;91.90;;;;;;4954144;28;20973;-47
2023/08/30 05:32:50;;;;;;;46.47;44.57;;;24.20;91.70;;;;;;4953379;28;20477;-48
2023/08/30 05:35:18;;;;;;;44.03;42.13;;;24.30;91.30;;;;;;4950513;28;20501;-47
2023/08/30 05:37:44;;;;;;;43.67;41.57;;;24.40;91.10;;;;;;4958158;28;20452;-48
2023/08/30 05:40:15;;;;;;;48.63;46.23;;;24.40;90.90;;;;;;4950740;29;20449;-48
2023/08/30 05:42:42;;;;;;;46.90;45.00;;;24.50;90.90;;;;;;4954705;28;20457;-48
2023/08/30 05:45:10;;;;;;;45.00;43.20;;;24.50;91.00;;;;;;4950761;28;20615;-47
2023/08/30 05:47:37;;;;;;;45.27;43.37;;;24.60;90.50;;;;;;4956492;28;20508;-50
2023/08/30 05:50:05;;;;;;;45.47;43.67;;;24.60;90.40;;;;;;4950734;28;20476;-54
2023/08/30 05:52:32;;;;;;;48.00;45.90;;;24.70;90.30;;;;;;4954677;28;20466;-54
2023/08/30 05:55:00;;;;;;;45.87;43.87;;;24.70;90.20;;;;;;4951232;28;20505;-53
2023/08/30 05:57:35;;;;;;;47.53;45.53;;;24.80;90.10;;;;;;4952225;28;20484;-49
2023/08/30 06:00:05;;;;;;;46.40;44.50;;;24.90;89.70;;;;;;4951530;28;20456;-48
2023/08/30 06:02:37;;;;;;;46.00;44.03;;;24.90;89.50;;;;;;4954375;28;20540;-47
2023/08/30 06:05:04;;;;;;;46.00;44.10;;;25.00;89.30;;;;;;4952507;28;20889;-48
2023/08/30 06:07:31;;;;;;;48.50;46.13;;;25.00;89.10;;;;;;4950423;28;20508;-50
2023/08/30 06:09:58;;;;;;;49.40;47.40;;;25.00;88.50;;;;;;4956923;28;20996;-49
2023/08/30 06:12:25;;;;;;;48.47;46.50;;;25.10;88.50;;;;;;4952953;28;20456;-49
2023/08/30 06:14:52;;;;;;;48.67;46.43;;;25.10;88.30;;;;;;4953350;28;20463;-49
2023/08/30 06:17:20;;;;;;;46.57;44.70;;;25.10;88.10;;;;;;4953638;28;20444;-50
2023/08/30 06:19:48;;;;;;;46.93;44.93;;;25.20;88.30;;;;;;4954365;28;20476;-50
2023/08/30 06:22:15;;;;;;;46.67;44.57;;;25.20;87.70;;;;;;4958602;28;20499;-48
2023/08/30 06:24:42;;;;;;;46.40;44.40;;;25.20;87.60;;;;;;4953687;28;20512;-47
2023/08/30 06:27:09;;;;;;;47.90;45.90;;;25.20;87.40;;;;;;4963964;28;20522;-54
2023/08/30 06:29:36;;;;;;;48.27;45.97;;;25.30;87.70;;;;;;4959246;28;20483;-51
2023/08/30 06:32:03;;;;;;;47.70;45.63;;;25.30;87.10;;;;;;4957041;28;20976;-48
2023/08/30 06:34:30;;;;;;;45.67;43.43;;;25.30;87.30;;;;;;4953306;28;20457;-48
2023/08/30 06:36:58;;;;;;;35.13;33.33;;;25.40;87.20;;;;;;4964951;28;20487;-47
2023/08/30 06:39:25;;;;;;;37.10;35.17;;;25.40;86.80;;;;;;4953622;28;20492;-46
2023/08/30 06:41:52;;;;;;;37.70;35.80;;;25.40;86.70;;;;;;4956994;28;20486;-47
2023/08/30 06:44:19;;;;;;;37.03;35.17;;;25.40;86.90;;;;;;4956749;28;21021;-49
2023/08/30 06:46:46;;;;;;;38.40;36.53;;;25.40;86.20;;;;;;4953549;28;20481;-48
2023/08/30 06:49:13;;;;;;;38.60;37.00;;;25.40;86.30;;;;;;4953475;28;20480;-48
2023/08/30 06:51:40;;;;;;;39.27;37.47;;;25.40;86.00;;;;;;4961064;28;20842;-49
2023/08/30 06:54:08;;;;;;;39.50;37.40;;;25.30;85.60;;;;;;4956200;28;20883;-50
2023/08/30 06:56:35;;;;;;;36.67;35.07;;;25.20;85.30;;;;;;4960720;28;20484;-48
2023/08/30 06:59:02;;;;;;;38.07;36.47;;;25.10;85.30;;;;;;4954612;28;20488;-48
2023/08/30 07:01:29;;;;;;;38.33;36.73;;;25.00;85.10;;;;;;4956837;28;20561;-49
2023/08/30 07:03:56;;;;;;;37.50;35.90;;;24.90;85.10;;;;;;4954216;28;20460;-50
2023/08/30 07:06:23;;;;;;;37.73;35.63;;;24.80;85.20;;;;;;4962190;28;20907;-48
2023/08/30 07:08:50;;;;;;;38.97;37.37;;;24.70;85.30;;;;;;4960831;28;20448;-53
2023/08/30 07:11:19;;;;;;;37.27;35.37;;;24.60;87.90;;;;;;4957696;28;20492;-49
2023/08/30 07:13:45;;;;;;;39.93;38.13;;;24.40;89.60;;;;;;4946159;28;20487;-48
2023/08/30 07:16:12;;;;;;;40.20;38.00;;;24.30;89.00;;;;;;4959962;28;20503;-50
2023/08/30 07:18:40;;;;;;;40.30;38.30;;;24.20;89.40;;;;;;4953383;28;20497;-49
2023/08/30 07:21:07;;;;;;;45.63;43.40;;;24.10;89.50;;;;;;4958767;28;20836;-49
2023/08/30 07:23:34;;;;;;;39.60;37.77;;;24.00;90.30;;;;;;4956449;28;20571;-47
2023/08/30 07:26:01;;;;;;;44.03;42.00;;;23.90;90.10;;;;;;4957955;28;20492;-51
2023/08/30 07:28:29;;;;;;;42.77;40.87;;;23.80;90.00;;;;;;4960185;28;21015;-47
2023/08/30 07:31:03;;;;;;;43.37;41.37;;;23.70;89.60;;;;;;4952982;29;20483;-49
2023/08/30 07:33:33;;;;;;;41.43;39.63;;;23.60;91.20;;;;;;4952870;29;20491;-49
2023/08/30 07:36:02;;;;;;;41.87;39.90;;;23.50;91.10;;;;;;4958799;28;20556;-47
2023/08/30 07:38:30;;;;;;;38.97;36.90;;;23.50;90.70;;;;;;4951018;28;20453;-49
2023/08/30 07:40:59;;;;;;;39.43;37.53;;;23.40;90.50;;;;;;4953266;28;20457;-49
2023/08/30 07:43:33;;;;;;;39.40;37.60;;;23.40;91.10;;;;;;4956866;28;20551;-50
2023/08/30 07:46:11;;;;;;;36.90;35.20;;;23.40;91.10;;;;;;4952955;28;20526;-49
2023/08/30 07:48:39;;;;;;;39.30;37.50;;;23.30;90.90;;;;;;4953626;28;20543;-50
2023/08/30 07:51:08;;;;;;;41.20;39.40;;;23.30;91.00;;;;;;4955960;28;20457;-50
2023/08/30 07:53:35;;;;;;;39.37;37.43;;;23.30;90.90;;;;;;4960165;28;20884;-53
2023/08/30 07:56:04;;;;;;;36.20;34.20;;;23.30;91.00;;;;;;4962695;28;20486;-50
2023/08/30 07:58:37;;;;;;;38.27;36.47;;;23.20;90.70;;;;;;4959067;28;20232;-50
2023/08/30 08:01:04;;;;;;;42.17;39.87;;;23.30;91.10;;;;;;4953117;28;20556;-50
2023/08/30 08:03:31;;;;;;;38.30;36.50;;;23.20;90.00;;;;;;4951854;28;20694;-47
2023/08/30 08:06:03;;;;;;;38.80;36.87;;;23.10;87.90;;;;;;4954731;28;20468;-48
2023/08/30 08:08:33;;;;;;;42.83;40.87;;;22.90;86.90;;;;;;4956834;28;20829;-50
2023/08/30 08:11:03;;;;;;;38.60;36.80;;;22.80;86.30;;;;;;4956607;28;20449;-47
2023/08/30 08:13:35;;;;;;;38.10;36.50;;;22.70;87.50;;;;;;4952246;28;20534;-49
2023/08/30 08:16:06;;;;;;;39.83;38.07;;;22.60;87.90;;;;;;4953192;28;20481;-52
2023/08/30 08:18:34;;;;;;;38.53;36.83;;;22.60;87.70;;;;;;4952190;28;20535;-50
2023/08/30 08:21:01;;;;;;;40.37;38.60;;;22.60;88.60;;;;;;4956094;28;20486;-49
2023/08/30 08:23:30;;;;;;;40.10;38.30;;;22.50;89.10;;;;;;4956347;28;20542;-48
2023/08/30 08:26:00;;;;;;;38.90;37.10;;;22.50;90.00;;;;;;4959886;28;20611;-47
2023/08/30 08:28:42;;;;;;;39.70;37.40;;;22.50;89.90;;;;;;4949163;28;20486;-52
2023/08/30 08:31:11;;;;;;;35.57;33.87;;;22.40;89.00;;;;;;4959009;28;20981;-54
2023/08/30 08:33:48;;;;;;;36.93;35.33;;;22.40;88.40;;;;;;4954346;28;20453;-48
2023/08/30 08:36:21;;;;;;;39.15;37.05;;;22.40;88.60;;;;;;4951210;28;20513;-52
2023/08/30 08:38:51;;;;;;;42.47;40.37;;;22.30;87.60;;;;;;4951545;28;20661;-47
2023/08/30 08:41:24;;;;;;;43.00;41.00;;;22.40;89.00;;;;;;4952013;28;20487;-54
2023/08/30 08:43:55;;;;;;;45.57;43.47;;;22.40;88.20;;;;;;4943467;28;20480;-48
2023/08/30 08:46:22;;;;;;;41.10;39.30;;;22.50;87.40;;;;;;4951414;28;20461;-47
2023/08/30 08:48:57;;;;;;;43.17;41.17;;;22.40;87.80;;;;;;4953483;28;20519;-48
2023/08/30 08:51:28;;;;;;;42.13;40.13;;;22.40;88.10;;;;;;4958398;28;20459;-51
2023/08/30 08:54:11;;;;;;;41.67;39.77;;;22.40;88.60;;;;;;4956895;28;20457;-48
2023/08/30 08:56:40;;;;;;;45.10;42.80;;;22.30;88.50;;;;;;4956239;28;20995;-49
2023/08/30 08:59:11;;;;;;;43.47;41.47;;;22.30;88.10;;;;;;4951459;28;20991;-51
2023/08/30 09:01:40;;;;;;;46.33;43.70;;;22.30;88.40;;;;;;4951668;28;20461;-48
2023/08/30 09:04:14;;;;;;;44.43;42.33;;;22.30;89.40;;;;;;4951718;28;20452;-52
2023/08/30 09:06:44;;;;;;;43.43;41.33;;;22.20;88.60;;;;;;4952150;28;20518;-49
2023/08/30 09:09:15;;;;;;;46.23;44.23;;;22.20;88.80;;;;;;4952338;28;20512;-53
2023/08/30 09:11:45;;;;;;;43.07;41.33;;;22.20;89.20;;;;;;4955217;28;20456;-51
2023/08/30 09:14:16;;;;;;;43.10;41.30;;;22.00;89.90;;;;;;4951326;28;20503;-53
2023/08/30 09:16:58;;;;;;;44.40;42.50;;;21.90;89.00;;;;;;4951536;28;20460;-51
2023/08/30 09:19:33;;;;;;;44.13;41.87;;;21.90;89.80;;;;;;4951842;28;20519;-51
2023/08/30 09:22:05;;;;;;;44.80;42.87;;;21.90;90.20;;;;;;4952104;28;20441;-51
2023/08/30 09:24:42;;;;;;;44.70;42.77;;;21.90;90.50;;;;;;4951498;28;20551;-50
2023/08/30 09:27:10;;;;;;;44.27;42.33;;;21.90;90.60;;;;;;4950664;29;20444;-52
2023/08/30 09:29:43;;;;;;;44.10;42.10;;;21.90;91.40;;;;;;4950631;28;20496;-50
2023/08/30 09:32:12;;;;;;;42.13;40.20;;;21.90;90.70;;;;;;4950929;28;20452;-48
2023/08/30 09:34:48;;;;;;;39.78;37.47;;;21.90;90.50;;;;;;4951177;28;20490;-49
2023/08/30 09:37:48;;;;;;;43.77;41.87;;;21.90;90.30;;;;;;4950784;28;20689;-49
2023/08/30 09:40:19;;;;;;;45.50;43.60;;;22.00;90.60;;;;;;4953067;28;20456;-49
2023/08/30 09:42:48;;;;;;;43.97;41.70;;;22.10;90.70;;;;;;4950609;28;20555;-51
2023/08/30 09:45:23;;;;;;;43.37;41.47;;;22.10;90.60;;;;;;4950380;29;20504;-50
2023/08/30 09:47:51;;;;;;;45.03;43.03;;;22.20;90.80;;;;;;4943724;28;20827;-49
2023/08/30 09:50:19;;;;;;;43.57;41.60;;;22.10;90.80;;;;;;4951263;28;20213;-50
2023/08/30 09:52:48;;;;;;;46.17;44.27;;;22.10;91.00;;;;;;4950639;29;20436;-49
2023/08/30 09:55:23;;;;;;;44.67;42.77;;;22.10;90.90;;;;;;4950258;28;20464;-49
2023/08/30 09:57:58;;;;;;;44.37;42.37;;;22.10;90.80;;;;;;4942975;28;20436;-48
2023/08/30 10:00:29;;;;;;;44.17;42.23;;;22.00;90.40;;;;;;4967008;28;20463;-51
2023/08/30 10:02:58;;;;;;;44.33;41.83;;;22.10;90.30;;;;;;4950503;28;20952;-57
2023/08/30 10:05:25;;;;;;;45.20;43.30;;;22.00;90.40;;;;;;4950256;28;20469;-52
2023/08/30 10:07:54;;;;;;;43.30;41.30;;;22.00;90.30;;;;;;4950458;28;20484;-49
2023/08/30 10:10:21;;;;;;;42.57;40.43;;;22.00;90.30;;;;;;4950516;28;20473;-49
2023/08/30 10:12:48;;;;;;;41.53;39.53;;;22.10;90.60;;;;;;4955088;28;20968;-49
2023/08/30 10:15:15;;;;;;;43.80;41.63;;;22.10;90.40;;;;;;4950372;28;20519;-50
2023/08/30 10:17:46;;;;;;;42.00;40.20;;;22.20;90.60;;;;;;4950234;28;20469;-51
2023/08/30 10:20:13;;;;;;;42.97;41.03;;;22.30;90.80;;;;;;4950605;28;20465;-56
2023/08/30 10:22:42;;;;;;;43.27;41.27;;;22.30;90.60;;;;;;4950451;29;20718;-52
2023/08/30 10:25:13;;;;;;;43.60;41.40;;;22.40;90.60;;;;;;4950373;28;20531;-53
2023/08/30 10:27:45;;;;;;;41.87;39.97;;;22.40;90.60;;;;;;4951229;28;20460;-53
2023/08/30 10:30:13;;;;;;;40.13;38.43;;;22.50;90.60;;;;;;4950587;28;20492;-52
2023/08/30 10:32:41;;;;;;;42.80;41.20;;;22.50;90.60;;;;;;4950449;28;20480;-49
2023/08/30 10:35:12;;;;;;;46.97;45.07;;;22.50;90.90;;;;;;4949987;29;20499;-50
2023/08/30 10:37:39;;;;;;;46.03;44.33;;;22.50;90.70;;;;;;4950265;28;20954;-51
2023/08/30 10:40:07;;;;;;;42.63;41.07;;;22.50;90.70;;;;;;4950570;28;20444;-53
2023/08/30 10:42:34;;;;;;;45.43;43.80;;;22.50;91.20;;;;;;4952279;28;20487;-51
2023/08/30 10:45:04;;;;;;;42.67;40.33;;;22.50;90.90;;;;;;4951997;28;20894;-50
2023/08/30 10:47:32;;;;;;;41.90;40.40;;;22.50;91.30;;;;;;4952491;28;20488;-49
2023/08/30 10:50:04;;;;;;;42.47;40.53;;;22.50;91.00;;;;;;4950924;28;20488;-50
2023/08/30 10:52:32;;;;;;;44.20;42.50;;;22.50;91.00;;;;;;4958697;28;20510;-53
2023/08/30 10:55:06;;;;;;;42.87;41.37;;;22.50;91.10;;;;;;4949509;28;20464;-49
2023/08/30 10:57:34;;;;;;;45.10;43.00;;;22.50;91.00;;;;;;4949625;28;20444;-50
2023/08/30 11:00:09;;;;;;;44.13;42.43;;;22.50;91.00;;;;;;4951089;28;20441;-50
2023/08/30 11:02:36;;;;;;;44.00;42.30;;;22.40;91.00;;;;;;4952952;28;20455;-52
2023/08/30 11:05:06;;;;;;;43.70;42.20;;;22.40;91.00;;;;;;4952685;28;20503;-50
2023/08/30 11:07:34;;;;;;;41.10;39.60;;;22.40;91.00;;;;;;4952860;28;20452;-49
2023/08/30 11:10:03;;;;;;;39.70;38.30;;;22.40;91.00;;;;;;4952734;28;20919;-50
2023/08/30 11:12:30;;;;;;;45.63;44.03;;;22.40;91.10;;;;;;4952669;29;20971;-51
2023/08/30 11:14:57;;;;;;;44.77;43.00;;;22.30;91.00;;;;;;4952707;28;20464;-51
2023/08/30 11:17:24;;;;;;;43.37;41.90;;;22.30;91.00;;;;;;4952856;28;20491;-51
2023/08/30 11:19:57;;;;;;;45.47;43.80;;;22.30;91.00;;;;;;4952709;28;20472;-50
2023/08/30 11:22:24;;;;;;;43.73;42.13;;;22.30;91.00;;;;;;4952732;28;20888;-50
2023/08/30 11:24:53;;;;;;;45.87;44.17;;;22.30;91.00;;;;;;4952307;29;20525;-51
2023/08/30 11:27:20;;;;;;;43.90;42.13;;;22.30;91.10;;;;;;4952589;28;20473;-49
2023/08/30 11:29:47;;;;;;;46.10;43.93;;;22.30;91.10;;;;;;4952453;28;20481;-50
2023/08/30 11:32:14;;;;;;;42.27;40.77;;;22.30;91.10;;;;;;4952699;28;20476;-47
2023/08/30 11:34:41;;;;;;;42.60;41.10;;;22.20;91.10;;;;;;4952431;29;20477;-49
2023/08/30 11:37:08;;;;;;;42.90;41.40;;;22.20;91.10;;;;;;4952526;28;20469;-49
2023/08/30 11:39:36;;;;;;;42.43;40.83;;;22.30;91.10;;;;;;4952338;28;20455;-48
2023/08/30 11:42:06;;;;;;;42.83;41.33;;;22.20;91.10;;;;;;4952509;28;20463;-48
2023/08/30 11:44:33;;;;;;;44.20;42.70;;;22.20;91.10;;;;;;4952115;29;20506;-49
2023/08/30 11:47:00;;;;;;;42.23;40.83;;;22.20;91.20;;;;;;4952337;28;20451;-50
2023/08/30 11:49:29;;;;;;;42.60;41.20;;;22.20;91.10;;;;;;4952238;28;20486;-49
2023/08/30 11:51:58;;;;;;;46.43;44.83;;;22.20;91.20;;;;;;4944674;28;20480;-49
2023/08/30 11:54:25;;;;;;;45.50;43.87;;;22.20;91.20;;;;;;4952063;28;20524;-49
2023/08/30 11:56:52;;;;;;;42.27;40.83;;;22.20;91.20;;;;;;4952012;28;20499;-50
2023/08/30 11:59:21;;;;;;;44.13;42.43;;;22.20;91.20;;;;;;4952118;28;20465;-48
2023/08/30 12:01:49;;;;;;;41.53;40.03;;;22.20;91.20;;;;;;4952052;28;20449;-49
2023/08/30 12:04:18;;;;;;;43.47;41.57;;;22.20;91.30;;;;;;4951925;28;20506;-49
2023/08/30 12:06:45;;;;;;;43.57;42.07;;;22.20;91.30;;;;;;4951911;28;20469;-49
2023/08/30 12:09:15;;;;;;;43.30;41.80;;;22.20;91.30;;;;;;4951927;29;21054;-48
2023/08/30 12:11:42;;;;;;;42.00;40.60;;;22.20;91.30;;;;;;4950572;29;20452;-48
2023/08/30 12:14:09;;;;;;;40.93;39.60;;;22.20;91.30;;;;;;4951825;28;20449;-49
2023/08/30 12:16:37;;;;;;;42.57;41.07;;;22.20;91.40;;;;;;4951809;28;20907;-50
2023/08/30 12:19:13;;;;;;;43.20;41.70;;;22.20;91.30;;;;;;4951763;29;20445;-48
2023/08/30 12:21:41;;;;;;;42.60;41.03;;;22.10;91.30;;;;;;4951814;28;20451;-48
2023/08/30 12:24:08;;;;;;;43.87;42.27;;;22.10;91.30;;;;;;4951658;28;20468;-48
2023/08/30 12:26:38;;;;;;;43.40;41.80;;;22.10;91.30;;;;;;4951463;28;20539;-49
2023/08/30 12:29:05;;;;;;;44.27;42.77;;;22.20;91.40;;;;;;4951582;28;20572;-50
2023/08/30 12:31:32;;;;;;;44.30;42.60;;;22.10;91.40;;;;;;4951847;28;20469;-49
2023/08/30 12:34:00;;;;;;;41.90;40.50;;;22.10;91.40;;;;;;4951559;28;20502;-49
2023/08/30 12:36:27;;;;;;;40.80;39.40;;;22.10;91.40;;;;;;4951649;28;20501;-48